createdAt,value
2018-02-19T00:00:27.161Z,12.20
2018-02-19T00:02:54.804Z,12.73
2018-02-19T00:05:22.458Z,11.47
2018-02-19T00:07:50.072Z,11.73
2018-02-19T00:10:18.789Z,11.27
2018-02-19T00:12:46.465Z,12.20
2018-02-19T00:15:14.085Z,12.05
2018-02-19T00:17:42.143Z,12.07
2018-02-19T00:20:09.757Z,11.40
2018-02-19T00:22:37.375Z,11.63
2018-02-19T00:25:05.029Z,12.13
2018-02-19T00:27:32.738Z,11.50
2018-02-19T00:30:00.399Z,12.33
2018-02-19T00:32:28.058Z,12.00
2018-02-19T00:34:55.677Z,11.00
2018-02-19T00:37:23.345Z,12.30
2018-02-19T00:39:50.998Z,11.80
2018-02-19T00:42:18.618Z,11.87
2018-02-19T00:44:46.274Z,12.27
2018-02-19T00:47:13.890Z,11.30
2018-02-19T00:49:41.546Z,12.57
2018-02-19T00:52:09.198Z,11.63
2018-02-19T00:54:36.819Z,11.17
2018-02-19T00:57:04.501Z,12.93
2018-02-19T00:59:32.749Z,11.80
2018-02-19T01:02:00.496Z,11.63
2018-02-19T01:04:28.154Z,13.30
2018-02-19T01:06:55.773Z,13.10
2018-02-19T01:09:23.425Z,11.98
2018-02-19T01:11:51.040Z,12.60
2018-02-19T01:14:18.705Z,12.57
2018-02-19T01:16:46.320Z,11.93
2018-02-19T01:19:13.998Z,11.70
2018-02-19T01:21:42.258Z,12.50
2018-02-19T01:24:09.868Z,11.50
2018-02-19T01:26:38.994Z,12.15
2018-02-19T01:29:06.610Z,12.00
2018-02-19T01:31:34.493Z,12.73
2018-02-19T01:34:02.113Z,11.33
2018-02-19T01:36:29.877Z,11.93
2018-02-19T01:38:57.546Z,12.07
2018-02-19T01:41:25.157Z,11.57
2018-02-19T01:43:53.375Z,13.27
2018-02-19T01:46:21.034Z,13.38
2018-02-19T01:48:48.693Z,12.27
2018-02-19T01:51:16.349Z,12.35
2018-02-19T01:53:43.976Z,12.75
2018-02-19T01:56:11.629Z,11.38
2018-02-19T01:58:39.385Z,13.43
2018-02-19T02:01:07.768Z,12.07
2018-02-19T02:03:36.183Z,12.85
2018-02-19T02:06:03.802Z,11.60
2018-02-19T02:08:32.398Z,11.40
2018-02-19T02:11:00.015Z,11.90
2018-02-19T02:13:27.862Z,12.27
2018-02-19T02:15:55.514Z,11.35
2018-02-19T02:18:23.161Z,12.80
2018-02-19T02:20:50.814Z,13.63
2018-02-19T02:23:18.469Z,14.23
2018-02-19T02:25:46.358Z,13.63
2018-02-19T02:28:14.018Z,12.37
2018-02-19T02:30:41.681Z,12.83
2018-02-19T02:33:09.295Z,12.83
2018-02-19T02:35:37.718Z,11.90
2018-02-19T02:38:05.958Z,11.80
2018-02-19T02:40:33.583Z,11.97
2018-02-19T02:43:02.332Z,12.57
2018-02-19T02:45:29.986Z,13.40
2018-02-19T02:47:57.608Z,13.10
2018-02-19T02:50:26.037Z,13.70
2018-02-19T02:52:53.658Z,13.88
2018-02-19T02:55:21.302Z,11.90
2018-02-19T02:57:49.729Z,12.40
2018-02-19T03:00:17.496Z,13.33
2018-02-19T03:02:45.115Z,13.03
2018-02-19T03:05:12.774Z,13.32
2018-02-19T03:07:40.429Z,12.53
2018-02-19T03:10:09.074Z,12.90
2018-02-19T03:12:36.934Z,13.13
2018-02-19T03:15:04.692Z,12.23
2018-02-19T03:17:32.344Z,15.00
2018-02-19T03:19:59.953Z,12.03
2018-02-19T03:22:27.625Z,13.30
2018-02-19T03:24:56.265Z,13.10
2018-02-19T03:27:23.878Z,16.00
2018-02-19T03:29:51.526Z,17.53
2018-02-19T03:32:19.908Z,20.43
2018-02-19T03:34:47.568Z,21.90
2018-02-19T03:37:15.177Z,20.53
2018-02-19T03:39:42.840Z,19.20
2018-02-19T03:42:10.452Z,14.40
2018-02-19T03:44:38.108Z,15.23
2018-02-19T03:47:06.262Z,16.55
2018-02-19T03:49:35.582Z,15.23
2018-02-19T03:52:03.243Z,12.70
2018-02-19T03:54:30.897Z,14.50
2018-02-19T03:56:58.717Z,14.00
2018-02-19T03:59:26.342Z,13.00
2018-02-19T04:01:53.993Z,15.15
2018-02-19T04:04:21.702Z,12.63
2018-02-19T04:06:49.356Z,13.63
2018-02-19T04:09:17.020Z,12.53
2018-02-19T04:11:44.673Z,13.23
2018-02-19T04:14:13.050Z,14.13
2018-02-19T04:16:41.270Z,13.13
2018-02-19T04:19:08.890Z,14.25
2018-02-19T04:21:36.541Z,14.53
2018-02-19T04:24:04.420Z,14.40
2018-02-19T04:26:32.042Z,13.63
2018-02-19T04:28:59.666Z,13.55
2018-02-19T04:31:28.089Z,14.50
2018-02-19T04:33:55.707Z,15.07
2018-02-19T04:36:23.365Z,15.27
2018-02-19T04:38:51.022Z,14.53
2018-02-19T04:41:19.404Z,14.50
2018-02-19T04:43:48.586Z,12.63
2018-02-19T04:46:21.894Z,14.33
2018-02-19T04:48:50.356Z,14.57
2018-02-19T04:51:18.001Z,15.10
2018-02-19T04:53:45.663Z,14.47
2018-02-19T04:56:13.312Z,14.77
2018-02-19T04:58:41.170Z,15.60
2018-02-19T05:01:08.826Z,15.17
2018-02-19T05:03:37.085Z,14.70
2018-02-19T05:06:04.767Z,13.97
2018-02-19T05:08:32.632Z,14.67
2018-02-19T05:11:00.303Z,15.18
2018-02-19T05:13:27.921Z,14.80
2018-02-19T05:15:55.730Z,14.70
2018-02-19T05:18:23.494Z,15.70
2018-02-19T05:20:51.164Z,14.43
2018-02-19T05:23:19.393Z,16.10
2018-02-19T05:25:47.092Z,14.75
2018-02-19T05:28:16.538Z,15.33
2018-02-19T05:30:44.403Z,16.63
2018-02-19T05:33:13.277Z,15.82
2018-02-19T05:35:41.002Z,14.77
2018-02-19T05:38:08.711Z,16.60
2018-02-19T05:40:36.428Z,14.65
2018-02-19T05:43:04.394Z,15.63
2018-02-19T05:45:32.477Z,15.38
2018-02-19T05:48:00.548Z,13.73
2018-02-19T05:50:28.393Z,15.57
2018-02-19T05:52:56.047Z,15.35
2018-02-19T05:55:24.270Z,15.35
2018-02-19T05:57:52.873Z,15.00
2018-02-19T06:00:21.390Z,15.95
2018-02-19T06:02:49.665Z,14.77
2018-02-19T06:05:17.290Z,14.87
2018-02-19T06:07:45.577Z,15.88
2018-02-19T06:10:13.192Z,16.27
2018-02-19T06:12:40.817Z,15.47
2018-02-19T06:15:08.835Z,15.20
2018-02-19T06:17:37.217Z,14.90
2018-02-19T06:20:05.671Z,18.47
2018-02-19T06:22:33.296Z,17.05
2018-02-19T06:25:00.953Z,16.43
2018-02-19T06:27:28.578Z,16.00
2018-02-19T06:29:56.236Z,17.10
2018-02-19T06:32:23.906Z,15.63
2018-02-19T06:34:51.557Z,16.00
2018-02-19T06:37:19.174Z,18.08
2018-02-19T06:39:46.866Z,15.57
2018-02-19T06:42:14.485Z,15.67
2018-02-19T06:44:42.369Z,18.20
2018-02-19T06:47:10.026Z,16.10
2018-02-19T06:49:37.783Z,17.70
2018-02-19T06:52:05.415Z,15.73
2018-02-19T06:54:33.073Z,17.07
2018-02-19T06:57:00.695Z,16.40
2018-02-19T06:59:28.530Z,17.02
2018-02-19T07:01:56.294Z,18.25
2018-02-19T07:04:23.908Z,18.53
2018-02-19T07:06:51.587Z,17.97
2018-02-19T07:09:19.213Z,16.55
2018-02-19T07:11:47.321Z,18.67
2018-02-19T07:14:14.978Z,17.23
2018-02-19T07:16:42.598Z,18.67
2018-02-19T07:19:11.034Z,18.08
2018-02-19T07:21:38.656Z,16.77
2018-02-19T07:24:06.461Z,18.35
2018-02-19T07:26:34.115Z,17.20
2018-02-19T07:29:04.866Z,20.37
2018-02-19T07:31:33.265Z,17.00
2018-02-19T07:34:00.921Z,17.77
2018-02-19T07:36:29.356Z,17.85
2018-02-19T07:38:57.034Z,17.17
2018-02-19T07:41:24.802Z,17.83
2018-02-19T07:43:52.420Z,16.83
2018-02-19T07:46:20.099Z,16.40
2018-02-19T07:48:48.329Z,20.10
2018-02-19T07:51:16.153Z,17.42
2018-02-19T07:53:44.407Z,17.80
2018-02-19T07:56:12.085Z,18.48
2018-02-19T07:58:40.498Z,18.25
2018-02-19T08:01:08.118Z,18.40
2018-02-19T08:03:35.793Z,19.30
2018-02-19T08:06:03.469Z,18.55
2018-02-19T08:08:31.109Z,18.53
2018-02-19T08:10:58.786Z,19.27
2018-02-19T08:13:26.628Z,19.17
2018-02-19T08:15:54.393Z,18.50
2018-02-19T08:18:22.048Z,18.60
2018-02-19T08:20:49.723Z,18.77
2018-02-19T08:23:18.078Z,18.00
2018-02-19T08:25:45.754Z,19.77
2018-02-19T08:28:13.632Z,19.60
2018-02-19T08:30:42.057Z,18.23
2018-02-19T08:33:09.678Z,18.07
2018-02-19T08:35:38.106Z,17.17
2018-02-19T08:38:05.765Z,17.60
2018-02-19T08:40:33.386Z,18.92
2018-02-19T08:43:01.042Z,19.90
2018-02-19T08:45:29.458Z,18.08
2018-02-19T08:47:57.245Z,21.00
2018-02-19T08:50:24.879Z,19.30
2018-02-19T08:52:52.580Z,18.70
2018-02-19T08:55:20.237Z,18.07
2018-02-19T08:57:47.897Z,18.23
2018-02-19T09:00:15.516Z,18.25
2018-02-19T09:02:43.138Z,18.97
2018-02-19T09:05:10.801Z,19.60
2018-02-19T09:07:38.639Z,19.90
2018-02-19T09:10:06.295Z,20.27
2018-02-19T09:12:33.963Z,19.50
2018-02-19T09:15:01.631Z,21.23
2018-02-19T09:17:29.249Z,20.13
2018-02-19T09:19:56.877Z,20.08
2018-02-19T09:22:25.302Z,19.67
2018-02-19T09:24:52.928Z,21.40
2018-02-19T09:27:20.585Z,20.33
2018-02-19T09:29:48.210Z,21.80
2018-02-19T09:32:15.866Z,20.37
2018-02-19T09:34:44.085Z,20.17
2018-02-19T09:37:11.755Z,19.30
2018-02-19T09:39:39.405Z,22.87
2018-02-19T09:42:07.030Z,20.27
2018-02-19T09:44:35.002Z,21.67
2018-02-19T09:47:02.617Z,21.10
2018-02-19T09:49:30.278Z,21.20
2018-02-19T09:51:57.951Z,22.93
2018-02-19T09:54:25.568Z,22.17
2018-02-19T09:56:53.189Z,22.20
2018-02-19T09:59:21.736Z,22.67
2018-02-19T10:01:50.042Z,23.80
2018-02-19T10:04:18.424Z,25.20
2018-02-19T10:06:46.043Z,25.80
2018-02-19T10:09:14.182Z,21.62
2018-02-19T10:11:41.806Z,23.35
2018-02-19T10:14:09.427Z,24.73
2018-02-19T10:16:37.102Z,23.77
2018-02-19T10:19:04.757Z,23.48
2018-02-19T10:21:32.380Z,25.17
2018-02-19T10:23:59.998Z,24.60
2018-02-19T10:26:27.654Z,24.37
2018-02-19T10:28:55.437Z,24.93
2018-02-19T10:31:23.097Z,25.90
2018-02-19T10:33:50.735Z,23.02
2018-02-19T10:36:18.382Z,24.33
2018-02-19T10:38:46.059Z,25.85
2018-02-19T10:41:13.677Z,26.67
2018-02-19T10:43:42.057Z,26.37
2018-02-19T10:46:09.721Z,25.73
2018-02-19T10:48:37.343Z,26.13
2018-02-19T10:51:04.959Z,27.93
2018-02-19T10:53:32.630Z,26.93
2018-02-19T10:56:00.513Z,26.63
2018-02-19T10:58:28.144Z,25.25
2018-02-19T11:00:55.817Z,25.50
2018-02-19T11:03:23.493Z,23.37
2018-02-19T11:05:51.169Z,25.50
2018-02-19T11:08:18.833Z,26.83
2018-02-19T11:10:46.499Z,25.20
2018-02-19T11:13:14.892Z,26.77
2018-02-19T11:15:43.317Z,23.93
2018-02-19T11:18:10.997Z,26.40
2018-02-19T11:20:38.653Z,26.85
2018-02-19T11:23:06.274Z,28.53
2018-02-19T11:25:33.933Z,26.03
2018-02-19T11:28:01.585Z,28.93
2018-02-19T11:30:29.274Z,26.75
2018-02-19T11:32:56.888Z,27.90
2018-02-19T11:35:24.805Z,27.57
2018-02-19T11:37:52.421Z,25.83
2018-02-19T11:40:20.852Z,26.26
2018-02-19T11:42:48.470Z,26.50
2018-02-19T11:45:16.089Z,27.50
2018-02-19T11:47:43.741Z,26.10
2018-02-19T11:50:12.097Z,28.25
2018-02-19T11:52:39.791Z,26.20
2018-02-19T11:55:07.410Z,28.30
2018-02-19T11:57:35.066Z,26.80
2018-02-19T12:00:02.923Z,27.73
2018-02-19T12:02:30.722Z,29.40
2018-02-19T12:04:58.341Z,28.62
2018-02-19T12:07:27.005Z,28.75
2018-02-19T12:09:54.715Z,27.37
2018-02-19T12:12:22.430Z,28.37
2018-02-19T12:14:50.810Z,28.87
2018-02-19T12:17:18.426Z,28.30
2018-02-19T12:19:46.083Z,29.10
2018-02-19T12:22:13.741Z,28.85
2018-02-19T12:24:41.398Z,27.10
2018-02-19T12:27:09.021Z,30.40
2018-02-19T12:29:36.673Z,27.70
2018-02-19T12:32:04.806Z,27.13
2018-02-19T12:34:32.871Z,28.00
2018-02-19T12:37:00.718Z,28.50
2018-02-19T12:39:28.345Z,29.35
2018-02-19T12:41:56.693Z,28.10
2018-02-19T12:44:24.330Z,27.05
2018-02-19T12:46:51.982Z,28.80
2018-02-19T12:49:19.602Z,27.77
2018-02-19T12:51:48.002Z,27.13
2018-02-19T12:54:15.910Z,27.30
2018-02-19T12:56:43.530Z,28.60
2018-02-19T12:59:11.188Z,24.90
2018-02-19T13:01:38.904Z,27.90
2018-02-19T13:04:07.280Z,29.23
2018-02-19T13:06:36.406Z,28.83
2018-02-19T13:09:04.093Z,26.37
2018-02-19T13:11:31.762Z,27.97
2018-02-19T13:13:59.375Z,29.08
2018-02-19T13:16:26.993Z,29.60
2018-02-19T13:18:54.836Z,27.93
2018-02-19T13:21:22.513Z,26.47
2018-02-19T13:23:50.170Z,27.30
2018-02-19T13:26:18.041Z,28.37
2018-02-19T13:28:45.878Z,27.93
2018-02-19T13:31:13.497Z,25.93
2018-02-19T13:33:41.142Z,25.00
2018-02-19T13:36:09.567Z,29.23
2018-02-19T13:38:37.221Z,26.90
2018-02-19T13:41:04.872Z,27.87
2018-02-19T13:43:35.400Z,27.80
2018-02-19T13:46:03.214Z,27.10
2018-02-19T13:48:31.105Z,27.30
2018-02-19T13:50:58.944Z,29.20
2018-02-19T13:53:26.557Z,27.67
2018-02-19T13:55:54.173Z,29.60
2018-02-19T13:58:21.825Z,29.50
2018-02-19T14:00:49.477Z,26.02
2018-02-19T14:03:17.130Z,28.23
2018-02-19T14:05:44.747Z,27.87
2018-02-19T14:08:13.166Z,27.97
2018-02-19T14:10:41.577Z,26.85
2018-02-19T14:13:09.305Z,28.58
2018-02-19T14:15:37.207Z,25.72
2018-02-19T14:18:04.831Z,27.00
2018-02-19T14:20:32.454Z,25.23
2018-02-19T14:23:00.105Z,27.05
2018-02-19T14:25:27.765Z,26.23
2018-02-19T14:27:56.193Z,28.02
2018-02-19T14:30:23.816Z,28.70
2018-02-19T14:32:51.466Z,29.13
2018-02-19T14:35:19.084Z,29.20
2018-02-19T14:37:46.743Z,29.23
2018-02-19T14:40:16.565Z,28.03
2018-02-19T14:42:44.949Z,28.03
2018-02-19T14:45:13.374Z,28.05
2018-02-19T14:47:40.993Z,29.57
2018-02-19T14:50:09.442Z,27.70
2018-02-19T14:52:37.777Z,29.07
2018-02-19T14:55:05.431Z,28.13
2018-02-19T14:57:33.084Z,27.07
2018-02-19T15:00:00.795Z,29.10
2018-02-19T15:02:29.050Z,27.07
2018-02-19T15:04:56.665Z,29.85
2018-02-19T15:07:24.317Z,29.00
2018-02-19T15:09:52.862Z,27.98
2018-02-19T15:12:20.530Z,29.17
2018-02-19T15:14:48.151Z,30.20
2018-02-19T15:17:16.457Z,29.27
2018-02-19T15:19:44.118Z,30.23
2018-02-19T15:22:11.738Z,30.08
2018-02-19T15:24:39.389Z,27.10
2018-02-19T15:27:07.000Z,28.93
2018-02-19T15:29:34.777Z,29.77
2018-02-19T15:32:02.629Z,29.23
2018-02-19T15:34:30.293Z,27.80
2018-02-19T15:36:57.906Z,30.77
2018-02-19T15:39:25.525Z,29.13
2018-02-19T15:41:53.506Z,28.40
2018-02-19T15:44:22.621Z,28.70
2018-02-19T15:46:51.048Z,31.90
2018-02-19T15:49:18.662Z,29.30
2018-02-19T15:51:46.285Z,30.97
2018-02-19T15:54:13.989Z,31.92
2018-02-19T15:56:42.373Z,29.70
2018-02-19T15:59:10.033Z,30.85
2018-02-19T16:01:37.652Z,30.27
2018-02-19T16:04:06.079Z,32.47
2018-02-19T16:06:33.693Z,31.07
2018-02-19T16:09:01.540Z,30.47
2018-02-19T16:11:29.412Z,30.43
2018-02-19T16:13:57.030Z,29.35
2018-02-19T16:16:24.685Z,29.40
2018-02-19T16:18:52.304Z,30.15
2018-02-19T16:21:19.931Z,28.43
2018-02-19T16:23:47.591Z,30.30
2018-02-19T16:26:15.206Z,29.85
2018-02-19T16:28:43.638Z,29.33
2018-02-19T16:31:11.293Z,29.70
2018-02-19T16:33:38.955Z,30.17
2018-02-19T16:36:06.616Z,30.43
2018-02-19T16:38:34.939Z,29.13
2018-02-19T16:41:03.320Z,27.50
2018-02-19T16:43:31.749Z,26.30
2018-02-19T16:45:59.369Z,29.13
2018-02-19T16:48:27.022Z,29.83
2018-02-19T16:50:55.448Z,28.60
2018-02-19T16:53:23.102Z,28.12
2018-02-19T16:55:51.167Z,27.70
2018-02-19T16:58:18.853Z,28.27
2018-02-19T17:00:46.473Z,29.90
2018-02-19T17:03:14.374Z,25.85
2018-02-19T17:05:42.032Z,27.45
2018-02-19T17:08:09.902Z,28.00
2018-02-19T17:10:37.561Z,29.63
2018-02-19T17:13:05.182Z,28.83
2018-02-19T17:15:32.797Z,28.67
2018-02-19T17:18:00.453Z,28.17
2018-02-19T17:20:29.022Z,29.28
2018-02-19T17:22:57.385Z,28.40
2018-02-19T17:25:24.997Z,28.20
2018-02-19T17:27:52.650Z,29.97
2018-02-19T17:30:20.779Z,29.77
2018-02-19T17:32:49.093Z,27.37
2018-02-19T17:35:17.482Z,26.57
2018-02-19T17:37:45.905Z,26.45
2018-02-19T17:40:14.682Z,26.90
2018-02-19T17:42:42.516Z,26.25
2018-02-19T17:45:10.134Z,26.80
2018-02-19T17:47:38.565Z,29.73
2018-02-19T17:50:06.897Z,28.50
2018-02-19T17:52:35.246Z,28.97
2018-02-19T17:55:03.038Z,27.57
2018-02-19T17:57:31.391Z,27.97
2018-02-19T17:59:59.114Z,28.30
2018-02-19T18:02:26.959Z,28.40
2018-02-19T18:04:55.906Z,29.17
2018-02-19T18:07:23.654Z,28.37
2018-02-19T18:09:51.429Z,28.58
2018-02-19T18:12:19.083Z,28.03
2018-02-19T18:14:48.008Z,26.37
2018-02-19T18:17:15.661Z,28.62
2018-02-19T18:19:43.279Z,27.80
2018-02-19T18:22:12.008Z,29.45
2018-02-19T18:24:40.162Z,34.00
2018-02-19T18:27:07.817Z,26.23
2018-02-19T18:29:35.683Z,27.20
2018-02-19T18:32:04.665Z,27.83
2018-02-19T18:34:32.327Z,30.08
2018-02-19T18:37:00.768Z,27.70
2018-02-19T18:39:29.196Z,27.45
2018-02-19T18:41:57.401Z,24.27
2018-02-19T18:44:25.838Z,28.00
2018-02-19T18:46:54.013Z,29.70
2018-02-19T18:49:23.007Z,26.60
2018-02-19T18:51:51.693Z,29.50
2018-02-19T18:54:19.348Z,26.95
2018-02-19T18:56:46.992Z,29.07
2018-02-19T18:59:14.652Z,29.67
2018-02-19T19:01:43.126Z,26.75
2018-02-19T19:04:10.812Z,28.10
2018-02-19T19:06:38.473Z,30.48
2018-02-19T19:09:18.204Z,27.33
2018-02-19T19:11:45.864Z,31.50
2018-02-19T19:14:14.253Z,28.87
2018-02-19T19:16:42.297Z,29.10
2018-02-19T19:19:09.960Z,30.00
2018-02-19T19:21:37.622Z,29.50
2018-02-19T19:24:06.547Z,30.77
2018-02-19T19:26:34.210Z,28.83
2018-02-19T19:29:01.829Z,29.00
2018-02-19T19:31:30.111Z,28.17
2018-02-19T19:33:58.069Z,29.37
2018-02-19T19:36:26.065Z,29.33
2018-02-19T19:38:54.615Z,29.15
2018-02-19T19:41:22.268Z,28.33
2018-02-19T19:43:50.526Z,27.43
2018-02-19T19:46:18.909Z,27.73
2018-02-19T19:48:48.757Z,27.73
2018-02-19T19:51:16.581Z,29.02
2018-02-19T19:53:45.274Z,29.97
2018-02-19T19:56:15.003Z,30.17
2018-02-19T19:58:43.297Z,27.87
2018-02-19T20:01:12.164Z,29.53
2018-02-19T20:03:40.238Z,29.20
2018-02-19T20:06:07.861Z,29.12
2018-02-19T20:08:36.812Z,30.37
2018-02-19T20:11:04.454Z,30.30
2018-02-19T20:13:32.073Z,28.53
2018-02-19T20:16:00.407Z,28.92
2018-02-19T20:18:29.354Z,30.20
2018-02-19T20:20:57.998Z,27.90
2018-02-19T20:23:25.658Z,27.50
2018-02-19T20:25:55.003Z,28.20
2018-02-19T20:28:22.659Z,26.48
2018-02-19T20:30:50.318Z,30.70
2018-02-19T20:33:18.707Z,30.50
2018-02-19T20:35:47.317Z,28.10
2018-02-19T20:38:14.985Z,28.15
2018-02-19T20:40:43.252Z,29.87
2018-02-19T20:43:12.231Z,28.67
2018-02-19T20:45:39.896Z,28.75
2018-02-19T20:48:09.597Z,30.70
2018-02-19T20:50:39.063Z,28.77
2018-02-19T20:53:07.017Z,31.17
2018-02-19T20:55:36.125Z,30.17
2018-02-19T20:58:09.857Z,29.70
2018-02-19T21:00:37.800Z,29.70
2018-02-19T21:03:07.087Z,28.37
2018-02-19T21:05:36.209Z,30.63
2018-02-19T21:08:03.862Z,28.73
2018-02-19T21:10:31.782Z,28.00
2018-02-19T21:12:59.451Z,30.53
2018-02-19T21:15:27.077Z,28.45
2018-02-19T21:17:54.734Z,28.33
2018-02-19T21:20:24.148Z,29.40
2018-02-19T21:22:51.801Z,30.50
2018-02-19T21:25:19.441Z,32.60
2018-02-19T21:27:47.115Z,31.95
2018-02-19T21:30:14.932Z,32.28
2018-02-19T21:32:42.553Z,29.83
2018-02-19T21:35:10.207Z,31.47
2018-02-19T21:37:37.821Z,29.23
2018-02-19T21:40:06.154Z,32.03
2018-02-19T21:42:33.778Z,32.03
2018-02-19T21:45:01.442Z,31.23
2018-02-19T21:47:29.103Z,34.13
2018-02-19T21:49:57.720Z,32.38
2018-02-19T21:52:25.376Z,32.38
2018-02-19T21:54:53.042Z,31.40
2018-02-19T21:57:20.695Z,31.30
2018-02-19T21:59:48.547Z,31.20
2018-02-19T22:02:16.214Z,30.97
2018-02-19T22:04:43.943Z,32.53
2018-02-19T22:07:11.602Z,31.47
2018-02-19T22:09:39.278Z,36.90
2018-02-19T22:12:07.645Z,45.97
2018-02-19T22:14:35.481Z,43.60
2018-02-19T22:17:03.138Z,45.88
2018-02-19T22:19:30.758Z,43.27
2018-02-19T22:21:58.658Z,36.87
2018-02-19T22:24:26.277Z,34.50
2018-02-19T22:26:53.938Z,27.70
2018-02-19T22:29:21.601Z,27.80
2018-02-19T22:31:49.253Z,28.00
2018-02-19T22:34:16.906Z,24.70
2018-02-19T22:36:45.196Z,28.07
2018-02-19T22:39:12.866Z,27.90
2018-02-19T22:41:40.481Z,30.90
2018-02-19T22:44:08.169Z,30.92
2018-02-19T22:46:35.818Z,30.00
2018-02-19T22:49:03.717Z,31.37
2018-02-19T22:51:31.602Z,29.10
2018-02-19T22:53:59.448Z,28.90
2018-02-19T22:56:27.116Z,34.47
2018-02-19T22:58:54.890Z,30.60
2018-02-19T23:01:22.703Z,32.00
2018-02-19T23:03:50.801Z,34.25
2018-02-19T23:06:18.413Z,30.30
2018-02-19T23:08:46.110Z,31.63
2018-02-19T23:11:13.765Z,33.97
2018-02-19T23:13:41.380Z,33.00
2018-02-19T23:16:09.033Z,32.27
2018-02-19T23:18:36.689Z,33.77
2018-02-19T23:21:04.309Z,32.42
2018-02-19T23:23:31.965Z,32.90
2018-02-19T23:25:59.795Z,33.10
2018-02-19T23:28:27.454Z,31.30
2018-02-19T23:30:55.853Z,32.45
2018-02-19T23:33:23.550Z,32.03
2018-02-19T23:35:51.166Z,34.70
2018-02-19T23:38:18.773Z,32.77
2018-02-19T23:40:46.438Z,30.70
2018-02-19T23:43:14.053Z,35.50
2018-02-19T23:45:41.669Z,29.43
2018-02-19T23:48:09.342Z,28.57
2018-02-19T23:50:36.966Z,28.63
2018-02-19T23:53:04.588Z,29.85
2018-02-19T23:55:32.260Z,29.67
2018-02-19T23:58:00.584Z,31.75
